Time;durP1;ratioP1;P1;durP2;ratioP2;P2;SDS_P1;SDS_P2;PMS_P1;PMS_P2;Temp;Humidity;BMP_temperature;BMP_pressure;BME280_temperature;BME280_humidity;BME280_pressure;Samples;Min_cycle;Max_cycle;Signal;HPM_P1;HPM_P2
2023/04/28 00:01:29;;;;;;;;;;;;;;;-142.75;97.40;77397.13;5008515;28;20345;-65
2023/04/28 00:03:56;;;;;;;;;;;;;;;-142.75;98.47;77389.25;5008161;28;19920;-65
2023/04/28 00:06:21;;;;;;;;;;;;;;;-142.75;99.65;77397.13;5008290;28;20310;-66
2023/04/28 00:08:46;;;;;;;;;;;;;;;-142.75;99.18;77399.09;5008270;28;19913;-67
2023/04/28 00:11:12;;;;;;;;;;;;;;;-142.75;100.00;77397.13;5008438;28;20378;-66
2023/04/28 00:13:37;;;;;;;;;;;;;;;-142.75;100.00;77410.91;5007751;28;19914;-65
2023/04/28 00:16:03;;;;;;;;;;;;;;;-142.75;100.00;77414.84;5008012;28;19917;-66
2023/04/28 00:18:28;;;;;;;;;;;;;;;-142.75;100.00;77414.84;5008026;28;19960;-65
2023/04/28 00:20:54;;;;;;;;;;;;;;;-142.75;100.00;77405.00;4990062;28;19917;-66
2023/04/28 00:23:19;;;;;;;;;;;;;;;-142.75;100.00;77410.91;5022807;28;19921;-66
2023/04/28 00:25:49;;;;;;;;;;;;;;;-142.75;100.00;77416.81;5007843;28;19948;-65
2023/04/28 00:28:14;;;;;;;;;;;;;;;-142.75;100.00;77397.13;5007398;28;20632;-66
2023/04/28 00:30:40;;;;;;;;;;;;;;;-142.75;100.00;77399.09;5007814;28;20003;-66
2023/04/28 00:33:05;;;;;;;;;;;;;;;-142.75;100.00;77383.34;5007314;28;20016;-65
2023/04/28 00:35:30;;;;;;;;;;;;;;;-142.75;100.00;77387.28;5007873;28;19916;-65
2023/04/28 00:37:55;;;;;;;;;;;;;;;-142.75;100.00;77383.34;5007925;28;19913;-66
2023/04/28 00:40:21;;;;;;;;;;;;;;;-142.75;100.00;77381.38;5007667;28;21400;-66
2023/04/28 00:42:46;;;;;;;;;;;;;;;-142.75;100.00;77389.25;5007580;28;19913;-65
2023/04/28 00:45:11;;;;;;;;;;;;;;;-142.75;100.00;77377.44;5022299;28;19913;-66
2023/04/28 00:47:37;;;;;;;;;;;;;;;-142.75;100.00;77393.19;5007562;28;20448;-66
2023/04/28 00:50:05;;;;;;;;;;;;;;;-142.75;100.00;77381.38;5007556;28;20026;-67
2023/04/28 00:52:30;;;;;;;;;;;;;;;-142.75;100.00;77373.50;5007405;28;19972;-66
2023/04/28 00:54:56;;;;;;;;;;;;;;;-142.75;100.00;77369.56;5007013;28;20041;-66
2023/04/28 00:57:22;;;;;;;;;;;;;;;-142.75;100.00;77381.38;5007023;28;19924;-65
2023/04/28 00:59:47;;;;;;;;;;;;;;;-142.75;100.00;77373.50;5007198;28;19918;-66
2023/04/28 01:02:16;;;;;;;;;;;;;;;-142.75;100.00;77373.50;5007260;28;19917;-66
2023/04/28 01:04:42;;;;;;;;;;;;;;;-142.75;100.00;77377.44;5007123;28;20448;-65
2023/04/28 01:07:08;;;;;;;;;;;;;;;-142.75;100.00;77371.53;5007370;28;19914;-65
2023/04/28 01:09:33;;;;;;;;;;;;;;;-142.75;100.00;77369.56;5007166;28;19913;-66
2023/04/28 01:11:58;;;;;;;;;;;;;;;-142.75;100.00;77369.56;5007347;28;20484;-66
2023/04/28 01:14:24;;;;;;;;;;;;;;;-142.75;100.00;77377.44;5006449;28;19970;-66
2023/04/28 01:16:49;;;;;;;;;;;;;;;-142.75;100.00;77371.53;5006978;28;19913;-66
2023/04/28 01:19:18;;;;;;;;;;;;;;;-142.75;100.00;77359.72;5006761;28;19913;-66
2023/04/28 01:21:44;;;;;;;;;;;;;;;-142.75;100.00;77361.69;5007048;28;20350;-66
2023/04/28 01:24:09;;;;;;;;;;;;;;;-142.75;100.00;77338.06;5006201;28;19970;-66
2023/04/28 01:26:34;;;;;;;;;;;;;;;-142.75;100.00;77349.88;5006808;28;19975;-66
2023/04/28 01:29:00;;;;;;;;;;;;;;;-142.75;100.00;77361.69;4989201;28;19917;-66
2023/04/28 01:31:25;;;;;;;;;;;;;;;-142.75;100.00;77353.81;5006769;28;19952;-66
2023/04/28 01:33:50;;;;;;;;;;;;;;;-142.75;100.00;77353.81;5006743;28;19971;-66
2023/04/28 01:36:16;;;;;;;;;;;;;;;-142.75;100.00;77357.75;5006661;28;19932;-67
2023/04/28 01:38:41;;;;;;;;;;;;;;;-142.75;100.00;77361.69;5006641;28;19928;-66
2023/04/28 01:41:06;;;;;;;;;;;;;;;-142.75;100.00;77365.63;5021896;28;19917;-65
2023/04/28 01:43:31;;;;;;;;;;;;;;;-142.75;100.00;77353.81;5006047;28;19920;-66
2023/04/28 01:45:56;;;;;;;;;;;;;;;-142.75;100.00;77342.00;5006311;28;19913;-66
2023/04/28 01:48:22;;;;;;;;;;;;;;;-142.75;100.00;77343.97;5006526;28;19917;-66
2023/04/28 01:50:47;;;;;;;;;;;;;;;-142.75;100.00;77338.06;5006586;28;19921;-66
2023/04/28 01:53:13;;;;;;;;;;;;;;;-142.75;100.00;77342.00;5004685;28;20282;-66
2023/04/28 01:55:38;;;;;;;;;;;;;;;-142.75;100.00;77353.81;5006329;28;19917;-66
2023/04/28 01:58:03;;;;;;;;;;;;;;;-142.75;100.00;77349.88;5006531;28;19967;-67
2023/04/28 02:00:29;;;;;;;;;;;;;;;-142.75;100.00;77338.06;5006372;28;19918;-65
2023/04/28 02:02:54;;;;;;;;;;;;;;;-142.75;100.00;77353.81;5006496;28;19969;-65
2023/04/28 02:05:20;;;;;;;;;;;;;;;-142.75;100.00;77357.75;5006249;28;20012;-66
2023/04/28 02:07:45;;;;;;;;;;;;;;;-142.75;100.00;77342.00;5005207;28;19961;-65
2023/04/28 02:10:10;;;;;;;;;;;;;;;-142.75;100.00;77353.81;5006148;28;19944;-65
2023/04/28 02:12:36;;;;;;;;;;;;;;;-142.75;100.00;77324.28;5006603;28;20354;-64
2023/04/28 02:15:01;;;;;;;;;;;;;;;-142.75;100.00;77322.31;5006201;28;19917;-65
2023/04/28 02:17:28;;;;;;;;;;;;;;;-142.75;100.00;77316.41;5006292;28;19921;-65
2023/04/28 02:19:55;;;;;;;;;;;;;;;-142.75;100.00;77314.44;5006193;28;19918;-66
2023/04/28 02:22:20;;;;;;;;;;;;;;;-142.75;100.00;77314.44;5006275;28;19913;-66
2023/04/28 02:24:45;;;;;;;;;;;;;;;-142.75;100.00;77318.38;5005820;28;19913;-66
2023/04/28 02:27:12;;;;;;;;;;;;;;;-142.75;100.00;77310.50;5005925;28;19921;-65
2023/04/28 02:29:37;;;;;;;;;;;;;;;-142.75;100.00;77310.50;5016810;22;20020;-66
2023/04/28 02:32:03;;;;;;;;;;;;;;;-142.75;100.00;77304.59;4964994;28;20008;-67
2023/04/28 02:34:28;;;;;;;;;;;;;;;-142.75;100.00;77310.50;4984577;28;19913;-68
2023/04/28 02:36:53;;;;;;;;;;;;;;;-142.75;100.00;77304.59;4986676;28;20239;-67
2023/04/28 02:39:20;;;;;;;;;;;;;;;-142.75;100.00;77310.50;4985071;28;19918;-67
2023/04/28 02:41:46;;;;;;;;;;;;;;;-142.75;100.00;77312.47;4969642;28;20260;-67
2023/04/28 02:44:11;;;;;;;;;;;;;;;-142.75;100.00;77304.59;4986040;28;19921;-67
2023/04/28 02:46:36;;;;;;;;;;;;;;;-142.75;100.00;77300.66;4980366;28;19921;-68
2023/04/28 02:49:01;;;;;;;;;;;;;;;-142.75;100.00;77294.75;4967332;28;20005;-67
2023/04/28 02:51:27;;;;;;;;;;;;;;;-142.75;100.00;77296.72;4965925;28;19914;-68
2023/04/28 02:53:52;;;;;;;;;;;;;;;-142.75;100.00;77302.63;4967193;28;19922;-67
2023/04/28 02:56:17;;;;;;;;;;;;;;;-142.75;100.00;77310.50;4984411;28;19914;-68
2023/04/28 02:58:43;;;;;;;;;;;;;;;-142.75;100.00;77302.63;4971308;28;19925;-68
2023/04/28 03:01:08;;;;;;;;;;;;;;;-142.75;100.00;77302.63;4971762;28;19969;-67
2023/04/28 03:03:33;;;;;;;;;;;;;;;-142.75;100.00;77296.72;4990837;28;19914;-68
2023/04/28 03:05:58;;;;;;;;;;;;;;;-142.75;100.00;77318.38;4987345;28;19914;-68
2023/04/28 03:08:24;;;;;;;;;;;;;;;-142.75;100.00;77322.31;4985334;28;20171;-68
2023/04/28 03:10:49;;;;;;;;;;;;;;;-142.75;100.00;77336.09;4994167;28;19914;-68
2023/04/28 03:13:14;;;;;;;;;;;;;;;-142.75;100.00;77345.94;4984268;28;19920;-67
2023/04/28 03:15:39;;;;;;;;;;;;;;;-142.75;100.00;77328.22;4980152;28;19914;-67
2023/04/28 03:18:05;;;;;;;;;;;;;;;-142.75;100.00;77318.38;4979863;28;19989;-66
2023/04/28 03:20:30;;;;;;;;;;;;;;;-142.75;100.00;77304.59;4983210;28;19924;-67
2023/04/28 03:22:55;;;;;;;;;;;;;;;-142.75;100.00;77314.44;4998037;28;20382;-67
2023/04/28 03:25:20;;;;;;;;;;;;;;;-142.75;100.00;77300.66;4987554;28;19910;-67
2023/04/28 03:27:45;;;;;;;;;;;;;;;-142.75;100.00;77308.53;4988894;28;19964;-67
2023/04/28 03:30:11;;;;;;;;;;;;;;;-142.75;100.00;77306.56;4987633;28;19957;-67
2023/04/28 03:32:36;;;;;;;;;;;;;;;-142.75;100.00;77310.50;4989066;28;20001;-66
2023/04/28 03:35:01;;;;;;;;;;;;;;;-142.75;100.00;77318.38;4989039;28;19922;-67
2023/04/28 03:37:27;;;;;;;;;;;;;;;-142.75;100.00;77322.31;4988823;28;19921;-67
2023/04/28 03:39:52;;;;;;;;;;;;;;;-142.75;100.00;77314.44;4988479;28;20012;-65
2023/04/28 03:42:17;;;;;;;;;;;;;;;-142.75;100.00;77312.47;4971311;28;20444;-67
2023/04/28 03:44:42;;;;;;;;;;;;;;;-142.75;100.00;77302.63;4969011;28;19967;-67
2023/04/28 03:47:08;;;;;;;;;;;;;;;-142.75;100.00;77308.53;4972383;28;19976;-67
2023/04/28 03:49:33;;;;;;;;;;;;;;;-142.75;100.00;77302.63;4970822;28;20405;-67
2023/04/28 03:51:58;;;;;;;;;;;;;;;-142.75;100.00;77296.72;4988091;28;20282;-68
2023/04/28 03:54:23;;;;;;;;;;;;;;;-142.75;100.00;77298.69;4986871;28;19913;-67
2023/04/28 03:56:48;;;;;;;;;;;;;;;-142.75;100.00;77290.81;4967626;28;19914;-68
2023/04/28 03:59:14;;;;;;;;;;;;;;;-142.75;100.00;77290.81;4967396;28;19921;-67
2023/04/28 04:01:39;;;;;;;;;;;;;;;-142.75;100.00;77310.50;4980099;28;20281;-67
2023/04/28 04:04:05;;;;;;;;;;;;;;;-142.75;100.00;77302.63;4990020;28;19924;-65
2023/04/28 04:06:31;;;;;;;;;;;;;;;-142.75;100.00;77306.56;4990149;28;20354;-67
2023/04/28 04:08:56;;;;;;;;;;;;;;;-142.75;100.00;77308.53;4990019;28;19913;-67
2023/04/28 04:11:21;;;;;;;;;;;;;;;-142.75;100.00;77290.81;4990911;28;19914;-66
2023/04/28 04:13:46;;;;;;;;;;;;;;;-142.75;100.00;77294.75;4975590;28;20359;-67
2023/04/28 04:16:14;;;;;;;;;;;;;;;-142.75;100.00;77294.75;4969778;28;19965;-67
2023/04/28 04:18:39;;;;;;;;;;;;;;;-142.75;100.00;77286.88;4969690;28;20008;-67
2023/04/28 04:21:05;;;;;;;;;;;;;;;-142.75;100.00;77284.91;4969665;28;20024;-66
2023/04/28 04:23:30;;;;;;;;;;;;;;;-142.75;100.00;77277.03;4970849;28;19961;-67
2023/04/28 04:25:55;;;;;;;;;;;;;;;-142.75;100.00;77282.94;4971047;28;19928;-66
2023/04/28 04:28:20;;;;;;;;;;;;;;;-142.75;100.00;77282.94;4970868;28;19921;-65
2023/04/28 04:30:46;;;;;;;;;;;;;;;-142.75;100.00;77279.00;4969315;28;19924;-67
2023/04/28 04:33:11;;;;;;;;;;;;;;;-142.75;100.00;77271.13;4985381;28;20012;-67
2023/04/28 04:35:37;;;;;;;;;;;;;;;-142.75;100.00;77269.16;4970618;28;20009;-65
2023/04/28 04:38:02;;;;;;;;;;;;;;;-142.75;100.00;77282.94;4970930;28;20295;-66
2023/04/28 04:40:27;;;;;;;;;;;;;;;-142.75;100.00;77265.22;4985522;28;19937;-67
2023/04/28 04:42:52;;;;;;;;;;;;;;;-142.75;100.00;77267.19;4966323;28;19976;-66
2023/04/28 04:45:18;;;;;;;;;;;;;;;-142.75;100.00;77271.13;4970454;28;19917;-68
2023/04/28 04:47:43;;;;;;;;;;;;;;;-142.75;100.00;77253.41;4970477;28;19929;-67
2023/04/28 04:50:09;;;;;;;;;;;;;;;-142.75;100.00;77249.47;4972917;28;19921;-67
2023/04/28 04:52:35;;;;;;;;;;;;;;;-142.75;100.00;77245.53;4975995;28;19976;-66
2023/04/28 04:55:00;;;;;;;;;;;;;;;-142.75;100.00;77239.63;4968438;28;19961;-67
2023/04/28 04:57:26;;;;;;;;;;;;;;;-142.75;100.00;77227.81;4984209;28;20582;-68
2023/04/28 04:59:51;;;;;;;;;;;;;;;-142.75;100.00;77225.84;4981855;28;20368;-67
2023/04/28 05:02:16;;;;;;;;;;;;;;;-142.75;100.00;77227.81;4967125;28;19968;-67
2023/04/28 05:04:41;;;;;;;;;;;;;;;-142.75;100.00;77223.88;4969922;28;20288;-67
2023/04/28 05:07:07;;;;;;;;;;;;;;;-142.75;100.00;77219.94;4970086;28;19914;-66
2023/04/28 05:09:32;;;;;;;;;;;;;;;-142.75;100.00;77221.91;4970116;28;19914;-67
2023/04/28 05:11:58;;;;;;;;;;;;;;;-142.75;100.00;77229.78;4970479;28;19921;-67
2023/04/28 05:14:23;;;;;;;;;;;;;;;-142.75;100.00;77233.72;4969861;28;19960;-68
2023/04/28 05:16:48;;;;;;;;;;;;;;;-142.75;100.00;77227.81;4984413;28;19914;-67
2023/04/28 05:19:13;;;;;;;;;;;;;;;-142.75;100.00;77225.84;4983641;28;19922;-67
2023/04/28 05:21:39;;;;;;;;;;;;;;;-142.75;100.00;77219.94;4969829;28;19917;-67
2023/04/28 05:24:05;;;;;;;;;;;;;;;-142.75;100.00;77239.63;4966933;28;20012;-67
2023/04/28 05:26:30;;;;;;;;;;;;;;;-142.75;100.00;77227.81;4970013;28;19960;-67
2023/04/28 05:28:55;;;;;;;;;;;;;;;-142.75;100.00;77235.69;4969939;28;19914;-67
2023/04/28 05:31:20;;;;;;;;;;;;;;;-142.75;100.00;77229.78;4966133;28;20107;-68
2023/04/28 05:33:46;;;;;;;;;;;;;;;-142.75;100.00;77216.00;4984167;28;19925;-68
2023/04/28 05:36:11;;;;;;;;;;;;;;;-142.75;100.00;77196.31;4969071;28;19922;-66
2023/04/28 05:38:37;;;;;;;;;;;;;;;-142.75;100.00;77192.38;4969852;28;19914;-64
2023/04/28 05:41:02;;;;;;;;;;;;;;;-142.75;100.00;77219.94;4980398;28;20008;-67
2023/04/28 05:43:27;;;;;;;;;;;;;;;-142.75;100.00;77216.00;4955473;28;20290;-67
2023/04/28 05:45:52;;;;;;;;;;;;;;;-142.75;100.00;77219.94;4966032;28;20379;-67
2023/04/28 05:48:18;;;;;;;;;;;;;;;-142.75;100.00;77223.88;4970532;28;19921;-66
2023/04/28 05:50:43;;;;;;;;;;;;;;;-142.75;100.00;77227.81;4968832;28;19914;-67
2023/04/28 05:53:08;;;;;;;;;;;;;;;-142.75;100.00;77217.97;4969702;28;19917;-67
2023/04/28 05:55:35;;;;;;;;;;;;;;;-142.75;100.00;77206.16;4972041;28;19921;-68
2023/04/28 05:58:00;;;;;;;;;;;;;;;-142.75;100.00;77188.44;4969298;28;20001;-68
2023/04/28 06:00:25;;;;;;;;;;;;;;;-142.75;100.00;77176.63;4968936;28;20009;-68
2023/04/28 06:02:51;;;;;;;;;;;;;;;-142.75;100.00;77174.66;4965394;28;19922;-65
2023/04/28 06:05:16;;;;;;;;;;;;;;;-142.75;100.00;77172.69;4967605;28;19918;-67
2023/04/28 06:07:41;;;;;;;;;;;;;;;-142.75;100.00;77168.75;4968813;28;19914;-67
2023/04/28 06:10:07;;;;;;;;;;;;;;;-142.75;100.00;77156.94;4966149;28;20379;-66
2023/04/28 06:12:32;;;;;;;;;;;;;;;-142.75;100.00;77154.97;4980057;28;19914;-67
2023/04/28 06:14:57;;;;;;;;;;;;;;;-142.75;100.00;77162.84;4963629;28;19942;-66
2023/04/28 06:17:23;;;;;;;;;;;;;;;-142.75;100.00;77164.81;4964047;28;20386;-67
2023/04/28 06:19:50;;;;;;;;;;;;;;;-142.75;100.00;77153.00;4967097;28;19925;-66
2023/04/28 06:22:15;;;;;;;;;;;;;;;-142.75;100.00;77153.00;4968396;28;19946;-67
2023/04/28 06:24:40;;;;;;;;;;;;;;;-142.75;100.00;77149.06;4966235;28;20415;-67
2023/04/28 06:27:06;;;;;;;;;;;;;;;-142.75;100.00;77151.03;4967727;28;20564;-66
2023/04/28 06:29:31;;;;;;;;;;;;;;;-142.75;100.00;77156.94;4967980;28;19914;-67
2023/04/28 06:31:56;;;;;;;;;;;;;;;-142.75;100.00;77143.16;4971758;28;20392;-69
2023/04/28 06:34:29;;;;;;;;;;;;;;;-142.75;100.00;77129.38;4965720;28;20052;-69
2023/04/28 06:36:55;;;;;;;;;;;;;;;-142.75;100.00;77113.63;4972617;28;20092;-70
2023/04/28 06:39:20;;;;;;;;;;;;;;;-142.75;100.00;77111.66;4972327;28;20287;-70
2023/04/28 06:41:46;;;;;;;;;;;;;;;-142.75;100.00;77105.75;4984843;28;19922;-69
2023/04/28 06:44:12;;;;;;;;;;;;;;;-142.75;100.00;77086.06;4987175;28;19922;-67
2023/04/28 06:46:37;;;;;;;;;;;;;;;-142.75;100.00;77082.13;4987076;28;19914;-67
2023/04/28 06:49:02;;;;;;;;;;;;;;;-142.75;100.00;77078.19;4972522;28;19914;-70
2023/04/28 06:51:27;;;;;;;;;;;;;;;-142.75;100.00;77066.38;4972278;28;19914;-68
2023/04/28 06:53:53;;;;;;;;;;;;;;;-142.75;100.00;77040.78;4972208;28;19994;-68
2023/04/28 06:56:18;;;;;;;;;;;;;;;-142.75;100.00;77040.78;4976734;28;19968;-67
2023/04/28 06:58:44;;;;;;;;;;;;;;;-142.75;100.00;77034.88;4972241;28;20410;-70
2023/04/28 07:01:09;;;;;;;;;;;;;;;-142.75;100.00;77030.94;4971982;28;19918;-70
2023/04/28 07:03:34;;;;;;;;;;;;;;;-142.75;100.00;77017.16;4971729;28;19925;-70
2023/04/28 07:06:00;;;;;;;;;;;;;;;-142.75;100.00;77007.31;4986006;28;19921;-70
2023/04/28 07:08:25;;;;;;;;;;;;;;;-142.75;100.00;77001.41;4972030;28;19920;-68
2023/04/28 07:10:50;;;;;;;;;;;;;;;-142.75;100.00;76991.56;4986318;28;19921;-68
2023/04/28 07:13:16;;;;;;;;;;;;;;;-142.75;100.00;76991.56;4973483;28;19971;-68
2023/04/28 07:15:41;;;;;;;;;;;;;;;-142.75;100.00;76973.84;4979316;28;19918;-67
2023/04/28 07:18:06;;;;;;;;;;;;;;;-142.75;100.00;76952.19;4970820;28;20008;-69
2023/04/28 07:20:32;;;;;;;;;;;;;;;-142.75;100.00;76942.34;4967364;28;19922;-68
2023/04/28 07:22:57;;;;;;;;;;;;;;;-142.75;100.00;76936.44;4971083;28;19948;-68
2023/04/28 07:25:22;;;;;;;;;;;;;;;-142.75;100.00;76928.56;4973533;28;19918;-68
2023/04/28 07:27:47;;;;;;;;;;;;;;;-142.75;100.00;76904.94;4970991;28;19913;-68
2023/04/28 07:30:12;;;;;;;;;;;;;;;-142.75;100.00;76904.94;4970830;28;19913;-68
2023/04/28 07:32:38;;;;;;;;;;;;;;;-142.75;100.00;76883.28;4967143;28;19965;-68
2023/04/28 07:35:04;;;;;;;;;;;;;;;-142.75;100.00;76863.59;4972164;28;19925;-68
2023/04/28 07:37:29;;;;;;;;;;;;;;;-142.75;100.00;76845.88;4985145;28;19913;-69
2023/04/28 07:39:55;;;;;;;;;;;;;;;-142.75;100.00;76818.31;4970956;28;19918;-70
2023/04/28 07:42:20;;;;;;;;;;;;;;;-142.75;100.00;76802.56;4966487;28;19914;-68
2023/04/28 07:44:45;;;;;;;;;;;;;;;-142.75;100.00;76796.69;4971460;28;19925;-67
2023/04/28 07:47:11;;;;;;;;;;;;;;;-142.75;100.00;76784.88;4968268;28;19926;-68
2023/04/28 07:49:36;;;;;;;;;;;;;;;-142.75;100.00;76782.91;4970388;28;19921;-68
2023/04/28 07:52:01;;;;;;;;;;;;;;;-142.75;100.00;76765.19;4971075;28;20396;-68
2023/04/28 07:54:27;;;;;;;;;;;;;;;-142.75;100.00;76759.28;4970305;28;20028;-70
2023/04/28 07:56:52;;;;;;;;;;;;;;;-142.75;100.00;76763.22;4970173;28;19921;-71
2023/04/28 07:59:17;;;;;;;;;;;;;;;-142.75;100.00;76743.53;4965587;28;19914;-70
2023/04/28 08:01:42;;;;;;;;;;;;;;;-142.75;100.00;76743.53;4972763;28;21367;-70
2023/04/28 08:04:08;;;;;;;;;;;;;;;-142.75;100.00;76723.84;4983211;28;19921;-70
2023/04/28 08:06:35;;;;;;;;;;;;;;;-142.75;100.00;76708.09;4970802;28;20347;-69
2023/04/28 08:09:01;;;;;;;;;;;;;;;-142.75;100.00;76686.44;4969425;28;19961;-70
2023/04/28 08:11:26;;;;;;;;;;;;;;;-142.75;100.00;76692.34;4970498;28;19928;-68
2023/04/28 08:13:51;;;;;;;;;;;;;;;-142.75;100.00;76686.44;4976797;28;19913;-68
2023/04/28 08:16:18;;;;;;;;;;;;;;;-142.75;100.00;76686.44;4966764;28;19924;-68
2023/04/28 08:18:44;;;;;;;;;;;;;;;-142.75;100.00;76676.59;4970019;28;19920;-67
2023/04/28 08:21:09;;;;;;;;;;;;;;;-142.75;100.00;76647.06;4969902;28;19965;-67
2023/04/28 08:23:35;;;;;;;;;;;;;;;-142.75;100.00;76645.09;4975426;28;20032;-65
2023/04/28 08:26:00;;;;;;;;;;;;;;;-142.75;100.00;76623.44;4968547;28;19921;-68
2023/04/28 08:28:26;;;;;;;;;;;;;;;-142.75;100.00;76613.59;4969528;28;19968;-67
2023/04/28 08:30:52;;;;;;;;;;;;;;;-142.75;100.00;76617.53;5018426;22;19995;-66
2023/04/28 08:33:17;;;;;;;;;;;;;;;-142.75;100.00;76609.66;5001626;28;20276;-65
2023/04/28 08:35:42;;;;;;;;;;;;;;;-142.75;100.00;76591.94;5008616;28;19917;-65
2023/04/28 08:38:12;;;;;;;;;;;;;;;-142.75;100.00;76572.25;5008404;28;19920;-66
2023/04/28 08:40:37;;;;;;;;;;;;;;;-142.75;100.00;76570.28;4995730;28;19925;-66
2023/04/28 08:43:03;;;;;;;;;;;;;;;-142.75;100.00;76566.34;4989295;28;19914;-65
2023/04/28 08:45:29;;;;;;;;;;;;;;;-142.75;100.00;76550.59;4989595;28;19944;-65
2023/04/28 08:47:55;;;;;;;;;;;;;;;-142.75;100.00;76542.72;4988873;28;19913;-65
2023/04/28 08:50:24;;;;;;;;;;;;;;;-142.75;100.00;76544.69;4988888;28;19914;-65
2023/04/28 08:52:51;;;;;;;;;;;;;;;-142.75;100.00;76530.91;4992537;28;19920;-65
2023/04/28 08:55:17;;;;;;;;;;;;;;;-142.75;100.00;76528.97;4988823;28;19920;-66
2023/04/28 08:57:43;;;;;;;;;;;;;;;-142.75;100.00;76511.25;4989292;28;20345;-65
2023/04/28 09:00:09;;;;;;;;;;;;;;;-142.75;100.00;76505.34;4987050;28;19918;-66
2023/04/28 09:02:36;;;;;;;;;;;;;;;-142.75;100.00;76507.31;5002975;28;19913;-66
2023/04/28 09:05:02;;;;;;;;;;;;;;;-142.75;100.00;76499.44;4988972;28;19939;-67
2023/04/28 09:07:27;;;;;;;;;;;;;;;-142.75;100.00;76473.84;4989603;28;19921;-66
2023/04/28 09:10:12;;;;;;;;;;;;;;;-142.75;100.00;76465.97;4989455;28;19920;-65
2023/04/28 09:12:37;;;;;;;;;;;;;;;-142.75;100.00;76446.28;4988673;28;19972;-65
2023/04/28 09:15:08;;;;;;;;;;;;;;;-142.75;100.00;76438.41;4989143;28;19914;-65
2023/04/28 09:17:45;;;;;;;;;;;;;;;-142.75;100.00;76420.69;4988919;28;19919;-66
2023/04/28 09:20:24;;;;;;;;;;;;;;;-142.75;100.00;76430.53;4988373;28;20013;-65
2023/04/28 09:22:50;;;;;;;;;;;;;;;-142.75;100.00;76404.94;4988571;28;19922;-65
2023/04/28 09:25:16;;;;;;;;;;;;;;;-142.75;100.00;76401.00;4988302;28;20371;-65
2023/04/28 09:27:41;;;;;;;;;;;;;;;-142.75;100.00;76397.06;4988288;28;19917;-66
2023/04/28 09:30:07;;;;;;;;;;;;;;;-142.75;100.00;76373.44;4988146;28;19945;-65
2023/04/28 09:32:32;;;;;;;;;;;;;;;-142.75;100.00;76353.78;4988204;28;19921;-65
2023/04/28 09:34:58;;;;;;;;;;;;;;;-142.75;100.00;76341.97;4988104;28;19914;-65
2023/04/28 09:37:24;;;;;;;;;;;;;;;-142.75;100.00;76310.47;4988105;28;19914;-65
2023/04/28 09:39:50;;;;;;;;;;;;;;;-142.75;100.00;76300.63;4988134;28;19972;-66
2023/04/28 09:42:35;;;;;;;;;;;;;;;-142.75;100.00;76294.72;4988056;28;19921;-65
2023/04/28 09:45:01;;;;;;;;;;;;;;;-142.75;100.00;76286.84;4988665;28;19917;-66
2023/04/28 09:47:27;;;;;;;;;;;;;;;-142.75;100.00;76286.84;4988148;28;19960;-65
2023/04/28 09:49:56;;;;;;;;;;;;;;;-142.75;100.00;76284.88;4987957;28;19953;-66
2023/04/28 09:52:24;;;;;;;;;;;;;;;-142.75;100.00;76259.28;4988092;28;19913;-66
2023/04/28 09:54:50;;;;;;;;;;;;;;;-142.75;100.00;76259.28;4987920;28;20379;-65
2023/04/28 09:57:16;;;;;;;;;;;;;;;-142.75;100.00;76229.75;4988052;28;19920;-65
2023/04/28 09:59:45;;;;;;;;;;;;;;;-142.75;100.00;76233.69;4987861;28;19921;-66
2023/04/28 10:02:11;;;;;;;;;;;;;;;-142.75;100.00;76217.94;4988029;28;20000;-65
2023/04/28 10:04:37;;;;;;;;;;;;;;;-142.75;100.00;76206.13;4987310;28;20370;-64
2023/04/28 10:07:02;;;;;;;;;;;;;;;-142.75;100.00;76204.16;4991593;28;19953;-65
2023/04/28 10:09:28;;;;;;;;;;;;;;;-142.75;100.00;76194.34;4987785;28;19952;-65
2023/04/28 10:11:53;;;;;;;;;;;;;;;-142.75;100.00;76204.16;4988145;28;20426;-65
2023/04/28 10:14:18;;;;;;;;;;;;;;;-142.75;100.00;76227.78;4982995;28;19913;-65
2023/04/28 10:16:44;;;;;;;;;;;;;;;-142.75;100.00;76253.38;4977958;28;20310;-65
2023/04/28 10:19:09;;;;;;;;;;;;;;;-142.75;100.00;76277.00;4989893;28;19913;-66
2023/04/28 10:21:40;;;;;;;;;;;;;;;-142.75;100.00;76275.03;4985078;28;19918;-65
2023/04/28 10:24:13;;;;;;;;;;;;;;;-142.75;100.00;76277.00;4987686;28;19917;-66
2023/04/28 10:26:50;;;;;;;;;;;;;;;-142.75;100.00;76275.03;4987981;28;19914;-65
2023/04/28 10:29:16;;;;;;;;;;;;;;;-142.75;100.00;76255.34;4987183;28;20000;-65
2023/04/28 10:32:01;;;;;;;;;;;;;;;-142.75;100.00;76245.50;4987812;28;20052;-66
2023/04/28 10:34:28;;;;;;;;;;;;;;;-142.75;100.00;76241.56;4984797;28;20096;-66
2023/04/28 10:36:54;;;;;;;;;;;;;;;-142.75;100.00;76255.34;4985976;28;20052;-65
2023/04/28 10:39:20;;;;;;;;;;;;;;;-142.75;100.00;76255.34;4985496;28;19914;-66
2023/04/28 10:41:46;;;;;;;;;;;;;;;-142.75;100.00;76257.31;4985773;28;19914;-66
2023/04/28 10:44:32;;;;;;;;;;;;;;;-142.75;100.00;76229.75;4985895;28;19932;-66
2023/04/28 10:47:01;;;;;;;;;;;;;;;-142.75;100.00;76204.16;4974467;28;19929;-66
2023/04/28 10:49:45;;;;;;;;;;;;;;;-142.75;100.00;76229.75;4986180;28;19913;-65
2023/04/28 10:52:29;;;;;;;;;;;;;;;-142.75;100.00;76219.91;4987658;28;19937;-65
2023/04/28 10:55:17;;;;;;;;;;;;;;;-142.75;100.00;76221.88;4992067;28;20378;-66
2023/04/28 10:57:42;;;;;;;;;;;;;;;-142.75;100.00;76257.31;4984160;28;19969;-65
2023/04/28 11:00:27;;;;;;;;;;;;;;;-142.75;100.00;76286.84;4968810;28;19973;-65
2023/04/28 11:02:53;;;;;;;;;;;;;;;-142.75;100.00;76269.13;4985753;28;20492;-65
2023/04/28 11:05:18;;;;;;;;;;;;;;;-142.75;100.00;76259.28;4987303;28;19914;-66
2023/04/28 11:08:02;;;;;;;;;;;;;;;-142.75;100.00;76259.28;4987492;28;20040;-65
2023/04/28 11:10:47;;;;;;;;;;;;;;;-142.75;100.00;76275.03;4989191;28;19994;-65
2023/04/28 11:13:26;;;;;;;;;;;;;;;-142.75;100.00;76282.91;4986640;28;19914;-65
2023/04/28 11:16:04;;;;;;;;;;;;;;;-142.75;100.00;76265.19;4987780;28;19922;-61
2023/04/28 11:18:32;;;;;;;;;;;;;;;-142.75;100.00;76259.28;4990108;28;19918;-65
2023/04/28 11:20:57;;;;;;;;;;;;;;;-142.75;100.00;76261.25;4990454;28;20442;-65
2023/04/28 11:23:27;;;;;;;;;;;;;;;-142.75;100.00;76243.53;4990409;28;20005;-65
2023/04/28 11:25:52;;;;;;;;;;;;;;;-142.75;100.00;76247.47;4990477;28;19964;-65
2023/04/28 11:28:17;;;;;;;;;;;;;;;-142.75;100.00;76239.59;4990518;28;19917;-65
2023/04/28 11:30:43;;;;;;;;;;;;;;;-142.75;100.00;76237.63;4990436;28;20016;-65
2023/04/28 11:33:08;;;;;;;;;;;;;;;-142.75;100.00;76239.59;4990464;28;19960;-65
2023/04/28 11:35:40;;;;;;;;;;;;;;;-142.75;100.00;76255.34;4990731;28;20279;-65
2023/04/28 11:38:05;;;;;;;;;;;;;;;-142.75;100.00;76247.47;4990484;28;19949;-65
2023/04/28 11:40:31;;;;;;;;;;;;;;;-142.75;100.00;76251.41;5003228;28;19968;-65
2023/04/28 11:42:57;;;;;;;;;;;;;;;-142.75;100.00;76231.72;4998064;28;19956;-65
2023/04/28 11:45:23;;;;;;;;;;;;;;;-142.75;100.00;76235.66;4988069;28;19920;-65
2023/04/28 11:47:48;;;;;;;;;;;;;;;-142.75;100.00;76239.59;4993530;28;19914;-64
2023/04/28 11:50:14;;;;;;;;;;;;;;;-142.75;100.00;76227.78;4989295;28;19914;-65
2023/04/28 11:52:50;;;;;;;;;;;;;;;-142.75;100.00;76198.28;4989914;28;19921;-64
2023/04/28 11:55:15;;;;;;;;;;;;;;;-142.75;100.00;76215.97;5001350;28;19914;-65
2023/04/28 11:57:41;;;;;;;;;;;;;;;-142.75;100.00;76200.25;4989984;28;19923;-64
2023/04/28 12:00:13;;;;;;;;;;;;;;;-142.75;100.00;76204.16;4990475;28;20005;-65
2023/04/28 12:02:38;;;;;;;;;;;;;;;-142.75;100.00;76215.97;4989574;28;20327;-64
2023/04/28 12:05:07;;;;;;;;;;;;;;;-142.75;100.00;76204.16;4989536;28;19957;-65
2023/04/28 12:07:41;;;;;;;;;;;;;;;-142.75;100.00;76217.94;4989321;28;19921;-64
2023/04/28 12:10:11;;;;;;;;;;;;;;;-142.75;100.00;76214.00;4989690;28;19925;-64
2023/04/28 12:12:36;;;;;;;;;;;;;;;-142.75;100.00;76208.09;4990927;28;19921;-64
2023/04/28 12:15:06;;;;;;;;;;;;;;;-142.75;100.00;76194.34;4990220;28;20004;-65